»·PEaware :: N375BH KCVO-KCLM

N375BH :: KCVO-KCLM

FLIGHT INFORMATION

Flight Status: Arrived
Operator: Privately registered:
United States
More flights under this callsign
Pilot: Bill H. (23183)
Aircraft: Unknown
(P06T)
More flights by this aircraft type
Origin: KCVO Corvallis Mun
United States
Destination: KCLM Fairchild Intl
United States
More flights between these airports :: More routes between these airports
Route: KCVO KSHN 2WA1 W28 KCLM
File this flight plan on PilotEdge
Remarks: +CW / Training Flight | Tecnam P2006T
Altitude:
(Current/Filed)
8,500ft
Speed:
(Current/Filed)
150kts
Departed: 17-Apr-19 09:49 AM
Arrived: 17-Apr-19 11:33 AM
Distance/Time
Traveled:
217nm/1:44
Distance/Time
To Go:
Arrived

Flight Plot

Page will automatically refresh every two minutes.


Map Options




Map Legend


Flown Route
Filed Route
Departure Airport
Arrival Airport
Navaid (VOR, NDB)
Fix

Horizontal Profiles

Position Reports

Time Latitude Longitude Heading Altitude Ground
Speed
17-Apr-19 09:41 44.502845 -123.286286 113 243ft 0kts
17-Apr-19 09:42 44.502845 -123.286286 113 243ft 0kts
17-Apr-19 09:43 44.502482 -123.286117 201 244ft 3kts
17-Apr-19 09:44 44.502647 -123.288711 291 243ft 12kts
17-Apr-19 09:45 44.502941 -123.289742 292 244ft 0kts
17-Apr-19 09:46 44.502941 -123.289742 292 244ft 0kts
17-Apr-19 09:47 44.502910 -123.291106 186 244ft 8kts
17-Apr-19 09:48 44.481196 -123.294749 167 936ft 119kts
17-Apr-19 09:49 44.486582 -123.261302 350 1692ft 133kts
17-Apr-19 09:50 44.519432 -123.283251 345 2691ft 130kts
17-Apr-19 09:51 44.555352 -123.286367 1 3692ft 129kts
17-Apr-19 09:52 44.590919 -123.284969 0 4689ft 127kts
17-Apr-19 09:53 44.626114 -123.283156 2 5688ft 126kts
17-Apr-19 09:54 44.662073 -123.281349 2 6495ft 131kts
17-Apr-19 09:55 44.699224 -123.279500 2 7157ft 136kts
17-Apr-19 09:56 44.737455 -123.277597 2 7759ft 137kts
17-Apr-19 09:57 44.775468 -123.275703 2 8358ft 137kts
17-Apr-19 09:58 44.815607 -123.273697 2 8503ft 152kts
17-Apr-19 09:59 44.858352 -123.271561 2 8501ft 154kts
17-Apr-19 10:00 44.901332 -123.269409 2 8501ft 154kts
17-Apr-19 10:01 44.944406 -123.267250 2 8501ft 154kts
17-Apr-19 10:02 44.987330 -123.265093 2 8501ft 154kts
17-Apr-19 10:03 45.030298 -123.262927 2 8501ft 154kts
17-Apr-19 10:04 45.073290 -123.260762 2 8501ft 154kts
17-Apr-19 10:06 45.116492 -123.258582 2 8501ft 154kts
17-Apr-19 10:07 45.158224 -123.256472 2 8502ft 154kts
17-Apr-19 10:08 45.200650 -123.254326 2 8501ft 154kts
17-Apr-19 10:09 45.242853 -123.252192 2 8501ft 154kts
17-Apr-19 10:10 45.284945 -123.250053 2 8501ft 154kts
17-Apr-19 10:11 45.328025 -123.247863 2 8501ft 154kts
17-Apr-19 10:12 45.370990 -123.245677 2 8501ft 154kts
17-Apr-19 10:13 45.414016 -123.243484 2 8501ft 154kts
17-Apr-19 10:14 45.456925 -123.241294 2 8501ft 154kts
17-Apr-19 10:15 45.499906 -123.239096 2 8501ft 154kts
17-Apr-19 10:16 45.542755 -123.236902 2 8501ft 154kts
17-Apr-19 10:17 45.585742 -123.234698 2 8501ft 154kts
17-Apr-19 10:18 45.628677 -123.232492 2 8501ft 154kts
17-Apr-19 10:19 45.671121 -123.230309 2 8501ft 154kts
17-Apr-19 10:20 45.714091 -123.228096 2 8501ft 154kts
17-Apr-19 10:21 45.757024 -123.225881 2 8501ft 154kts
17-Apr-19 10:22 45.800003 -123.223660 2 8501ft 154kts
17-Apr-19 10:23 45.842938 -123.221437 2 8501ft 154kts
17-Apr-19 10:24 45.885929 -123.219209 2 8501ft 154kts
17-Apr-19 10:25 45.928818 -123.216982 2 8501ft 154kts
17-Apr-19 10:25 45.964577 -123.215123 2 8501ft 154kts
17-Apr-19 10:27 46.014686 -123.212514 2 8501ft 154kts
17-Apr-19 10:28 46.057691 -123.210271 2 8501ft 154kts
17-Apr-19 10:29 46.100671 -123.208026 2 8501ft 154kts
17-Apr-19 10:29 46.136135 -123.206169 2 8501ft 154kts
17-Apr-19 10:30 46.179064 -123.203920 2 8501ft 154kts
17-Apr-19 10:31 46.222034 -123.201665 2 8501ft 154kts
17-Apr-19 10:33 46.272178 -123.199030 2 8501ft 154kts
17-Apr-19 10:33 46.307485 -123.197176 2 8501ft 154kts
17-Apr-19 10:34 46.350423 -123.194914 2 8501ft 154kts
17-Apr-19 10:35 46.393407 -123.192645 2 8501ft 154kts
17-Apr-19 10:36 46.436356 -123.190374 2 8501ft 154kts
17-Apr-19 10:37 46.479273 -123.188101 2 8501ft 154kts
17-Apr-19 10:38 46.522283 -123.185819 2 8501ft 154kts
17-Apr-19 10:39 46.565281 -123.183534 2 8501ft 154kts
17-Apr-19 10:40 46.608255 -123.181247 2 8501ft 154kts
17-Apr-19 10:41 46.651224 -123.178957 2 8501ft 154kts
17-Apr-19 10:42 46.694156 -123.176665 2 8501ft 154kts
17-Apr-19 10:43 46.737148 -123.174366 2 8501ft 154kts
17-Apr-19 10:44 46.780094 -123.172066 2 8501ft 154kts
17-Apr-19 10:45 46.823032 -123.169763 2 8501ft 154kts
17-Apr-19 10:46 46.865977 -123.167455 2 8501ft 154kts
17-Apr-19 10:47 46.908966 -123.165142 2 8501ft 154kts
17-Apr-19 10:48 46.951883 -123.162828 2 8501ft 154kts
17-Apr-19 10:49 46.994828 -123.160510 2 8501ft 154kts
17-Apr-19 10:50 47.037854 -123.158183 2 8501ft 154kts
17-Apr-19 10:51 47.080787 -123.155858 2 8501ft 154kts
17-Apr-19 10:52 47.123852 -123.153520 2 8501ft 154kts
17-Apr-19 10:53 47.166898 -123.151181 2 8501ft 154kts
17-Apr-19 10:54 47.209913 -123.148840 2 8501ft 154kts
17-Apr-19 10:55 47.252544 -123.142712 9 8501ft 154kts
17-Apr-19 10:56 47.295032 -123.132064 9 8501ft 154kts
17-Apr-19 10:57 47.337452 -123.121373 9 8502ft 154kts
17-Apr-19 10:58 47.378230 -123.111069 9 8501ft 154kts
17-Apr-19 10:59 47.420547 -123.100360 9 8501ft 154kts
17-Apr-19 11:00 47.462969 -123.089608 9 8501ft 154kts
17-Apr-19 11:01 47.505338 -123.078851 9 8501ft 154kts
17-Apr-19 11:02 47.547823 -123.068049 9 8501ft 154kts
17-Apr-19 11:03 47.588696 -123.057640 9 8501ft 154kts
17-Apr-19 11:04 47.631102 -123.046826 9 8501ft 154kts
17-Apr-19 11:05 47.672065 -123.036360 9 8502ft 154kts
17-Apr-19 11:06 47.714556 -123.025485 9 8501ft 154kts
17-Apr-19 11:07 47.756415 -123.014754 9 8501ft 154kts
17-Apr-19 11:08 47.798870 -123.003854 9 8501ft 154kts
17-Apr-19 11:09 47.841269 -122.992948 9 8501ft 154kts
17-Apr-19 11:10 47.883923 -122.981960 9 8327ft 154kts
17-Apr-19 11:11 47.924607 -122.971472 9 7902ft 145kts
17-Apr-19 11:12 47.963716 -122.961374 9 7069ft 142kts
17-Apr-19 11:13 48.002554 -122.951325 9 6065ft 141kts
17-Apr-19 11:14 48.041167 -122.941314 9 5064ft 141kts
17-Apr-19 11:15 48.079616 -122.931362 7 4063ft 140kts
17-Apr-19 11:16 48.093464 -122.974682 270 3499ft 126kts
17-Apr-19 11:17 48.094272 -123.026450 271 3502ft 123kts
17-Apr-19 11:18 48.095275 -123.077794 271 3502ft 123kts
17-Apr-19 11:19 48.096246 -123.129255 271 3502ft 123kts
17-Apr-19 11:20 48.097240 -123.180567 271 3502ft 123kts
17-Apr-19 11:21 48.105880 -123.229880 295 3469ft 125kts
17-Apr-19 11:22 48.121497 -123.278936 295 3175ft 132kts
17-Apr-19 11:23 48.137366 -123.328779 295 2948ft 130kts
17-Apr-19 11:24 48.142962 -123.367010 272 2320ft 77kts
17-Apr-19 11:25 48.141443 -123.397733 246 1698ft 80kts
17-Apr-19 11:26 48.132846 -123.427577 245 1579ft 79kts
17-Apr-19 11:27 48.130638 -123.459358 286 1402ft 83kts
17-Apr-19 11:28 48.134902 -123.492207 257 1414ft 81kts
17-Apr-19 11:29 48.134716 -123.530214 262 1065ft 99kts
17-Apr-19 11:30 48.124654 -123.531741 99 710ft 83kts
17-Apr-19 11:31 48.118874 -123.499024 105 265ft 44kts
17-Apr-19 11:32 48.117327 -123.494823 110 275ft 8kts
17-Apr-19 11:33 48.116657 -123.492264 128 284ft 0kts

Navigation Log

Ident Type
Flight plan parsing failed, navigation log unavailable